Bookmark and Share
Track history (hours):
 

Tasman

Last reported at 2014-Apr-23 06:33 UTC. Time now 2014-Apr-23 06:46 UTC.
Position N 53°11' E 005°22'.

Length 90 m; draft 4 m.

Type: Ship. MMSI: 23617000.

NotesDate/timePositionNaut miles runAvg speedWind from/ knotsBaromVisibWave heightAir tempDewpointWater temp
2014-Apr-23 06:33N 53°11' E 005°22'8 8.2
2014-Apr-23 05:33N 53°15' E 005°10'6 5.9
2014-Apr-23 04:34N 53°19' E 005°02'9 8.7
2014-Apr-23 03:33N 53°15' E 004°49'1010.1
2014-Apr-23 02:33N 53°08' E 004°37'1310.8
2014-Apr-23 01:23N 52°58' E 004°24'1111.3
2014-Apr-23 00:23N 52°49' E 004°13'911.3
2014-Apr-22 23:33N 52°41' E 004°05'1211.6
2014-Apr-22 22:31N 52°30' E 003°55'1212.0
2014-Apr-22 21:33N 52°19' E 003°56'1212.2
2014-Apr-22 20:33N 52°07' E 003°59'1010.2
2014-Apr-22 19:33N 51°58' E 004°08'9 9.0
2014-Apr-22 18:33N 51°54' E 004°21'3 2.4
2014-Apr-22 17:31N 51°55' E 004°25'0 0.0
2014-Apr-22 16:33N 51°55' E 004°25'0 0.0
2014-Apr-22 15:30N 51°55' E 004°25'0 0.0
2014-Apr-22 14:29N 51°55' E 004°25'0 0.0
2014-Apr-22 13:32N 51°55' E 004°25'0 0.0
2014-Apr-22 12:32N 51°55' E 004°25'0 0.0
2014-Apr-22 11:28N 51°55' E 004°25'0 0.0
2014-Apr-22 10:22N 51°55' E 004°25'0 0.0
2014-Apr-22 09:33N 51°55' E 004°25'0 0.0
2014-Apr-22 08:33N 51°55' E 004°25'0 0.0
2014-Apr-22 07:32N 51°55' E 004°25'0 0.0
2014-Apr-22 06:32N 51°55' E 004°25'0 0.0
2014-Apr-22 05:32N 51°55' E 004°25'0 0.0
2014-Apr-22 04:31N 51°55' E 004°25'0 0.0
2014-Apr-22 03:25N 51°55' E 004°25'0 0.0
2014-Apr-22 02:24N 51°55' E 004°25'0 0.0
2014-Apr-22 01:30N 51°55' E 004°25'0 0.0
2014-Apr-22 00:32N 51°55' E 004°25'0 0.0
2014-Apr-21 23:32N 51°55' E 004°25'0 0.0
2014-Apr-21 22:29N 51°55' E 004°25'0 0.0
2014-Apr-21 21:28N 51°55' E 004°25'0 0.0
2014-Apr-21 20:28N 51°55' E 004°25'0 0.0
2014-Apr-21 19:33N 51°55' E 004°25'0 0.0
2014-Apr-21 18:33N 51°55' E 004°25'0 0.0
2014-Apr-21 17:33N 51°55' E 004°25'0 0.0
2014-Apr-21 16:32N 51°55' E 004°25'0 0.0
2014-Apr-21 15:31N 51°55' E 004°25'0 0.0
2014-Apr-21 14:31N 51°55' E 004°25'0 0.0
2014-Apr-21 13:31N 51°55' E 004°25'0 0.0
2014-Apr-21 12:30N 51°55' E 004°25'0 0.0
2014-Apr-21 11:30N 51°55' E 004°25'0 0.0
2014-Apr-21 10:29N 51°55' E 004°25'0 0.0
2014-Apr-21 09:32N 51°55' E 004°25'0 0.0
2014-Apr-21 08:32N 51°55' E 004°25'0 0.0
2014-Apr-21 06:31N 51°55' E 004°25'0 0.0
2014-Apr-21 05:33N 51°55' E 004°25'0 0.0
2014-Apr-21 04:33N 51°55' E 004°25'0 0.0
2014-Apr-21 03:32N 51°55' E 004°25'0 0.0
2014-Apr-21 02:32N 51°55' E 004°25'0 0.0
2014-Apr-21 01:32N 51°55' E 004°25'0 0.0
2014-Apr-21 00:31N 51°55' E 004°25'0 0.0
2014-Apr-20 23:31N 51°55' E 004°25'0 0.0
2014-Apr-20 22:30N 51°55' E 004°25'0 0.0
2014-Apr-20 21:33N 51°55' E 004°25'0 0.0
2014-Apr-20 20:32N 51°55' E 004°25'0 0.0
2014-Apr-20 19:29N 51°55' E 004°25'0 0.0
2014-Apr-20 18:32N 51°55' E 004°25'0 0.0
2014-Apr-20 17:28N 51°55' E 004°25'0 0.0
2014-Apr-20 16:31N 51°55' E 004°25'0 0.0
2014-Apr-20 15:30N 51°55' E 004°25'0 0.0
2014-Apr-20 14:33N 51°55' E 004°25'0 0.0
2014-Apr-20 13:32N 51°55' E 004°25'0 0.0
2014-Apr-20 12:32N 51°55' E 004°25'0 0.0
2014-Apr-20 11:31N 51°55' E 004°25'0 0.0
2014-Apr-20 10:28N 51°55' E 004°25'0 0.0
2014-Apr-20 09:22N 51°55' E 004°25'0 0.0
2014-Apr-20 08:33N 51°55' E 004°25'0 0.0
2014-Apr-20 07:33N 51°55' E 004°25'1 0.5
2014-Apr-20 06:34N 51°54' E 004°25'1010.4
2014-Apr-20 05:33N 51°58' E 004°09'1210.7
2014-Apr-20 04:28N 51°59' E 003°50'2411.1
2014-Apr-20 02:18N 51°52' E 003°13'7 9.7
2014-Apr-20 01:32N 51°50' E 003°01'9 8.9
2014-Apr-20 00:33N 51°48' E 002°48'8 8.2
2014-Apr-19 23:33N 51°44' E 002°36'8 7.9
2014-Apr-19 22:33N 51°38' E 002°28'8 8.0
2014-Apr-19 21:33N 51°32' E 002°19'8 7.6
2014-Apr-19 20:33N 51°25' E 002°13'12 8.1
2014-Apr-19 19:06N 51°15' E 002°04'4 8.2
2014-Apr-19 18:33N 51°12' E 001°58'132 9.2
2014-Apr-19 04:11N 50°14' W 001°08'4 5.9
2014-Apr-19 03:33N 50°14' W 001°14'263 8.2
2014-Apr-17 19:33N 51°31' W 007°52'1110.7
2014-Apr-17 18:33N 51°39' W 008°03'1110.7
2014-Apr-17 17:33N 51°47' W 008°16'6 6.1
2014-Apr-17 16:33N 51°52' W 008°20'4 3.7
2014-Apr-17 15:33N 51°54' W 008°25'0 0.0
2014-Apr-17 14:33N 51°54' W 008°25'0 0.0
2014-Apr-17 13:33N 51°54' W 008°25'0 0.0
2014-Apr-17 12:33N 51°54' W 008°25'0 0.0
2014-Apr-17 11:33N 51°54' W 008°25'0 0.0
2014-Apr-17 10:33N 51°54' W 008°25'0 0.0
2014-Apr-17 09:33N 51°54' W 008°25'0 0.0
2014-Apr-17 08:33N 51°54' W 008°25'0 0.0
2014-Apr-17 07:33N 51°54' W 008°25'0 0.0
2014-Apr-17 06:33N 51°54' W 008°25'0 0.0
2014-Apr-17 05:33N 51°54' W 008°25'0 0.0
2014-Apr-17 04:33N 51°54' W 008°25'0 0.0
2014-Apr-17 03:34N 51°54' W 008°25'0 0.0
2014-Apr-17 02:34N 51°54' W 008°25'0 0.0
2014-Apr-17 01:33N 51°54' W 008°25'0 0.0
2014-Apr-17 00:34N 51°54' W 008°25'0 0.0
2014-Apr-16 23:34N 51°54' W 008°25'0 0.0
2014-Apr-16 22:34N 51°54' W 008°25'0 0.0
2014-Apr-16 21:34N 51°54' W 008°25'0 0.0
2014-Apr-16 20:34N 51°54' W 008°25'0 0.0
2014-Apr-16 19:34N 51°54' W 008°25'0 0.0
2014-Apr-16 18:34N 51°54' W 008°25'2 2.2
2014-Apr-16 17:34N 51°53' W 008°22'9 8.6
2014-Apr-16 16:33N 51°46' W 008°15'1212.3
2014-Apr-16 15:34N 51°43' W 007°55'1110.9
2014-Apr-16 14:33N 51°49' W 007°41'1212.3
2014-Apr-16 13:34N 51°53' W 007°22'1212.3
2014-Apr-16 12:33N 51°57' W 007°03'1212.4
2014-Apr-16 11:33N 52°01' W 006°44'12911.5
2014-Apr-16 00:23N 53°34' W 004°18'1113.1
2014-Apr-15 23:32N 53°34' W 003°59'1212.0
2014-Apr-15 22:33N 53°34' W 003°40'1111.3
2014-Apr-15 21:33N 53°32' W 003°21'10 9.7
2014-Apr-15 20:33N 53°30' W 003°05'4 3.5
2014-Apr-15 19:33N 53°27' W 003°01'0 0.2
2014-Apr-15 18:28N 53°27' W 003°01'0 0.0
2014-Apr-15 17:28N 53°27' W 003°01'0 0.0
2014-Apr-15 16:33N 53°27' W 003°01'0 0.0
2014-Apr-15 15:33N 53°27' W 003°01'0 0.0
2014-Apr-15 14:33N 53°27' W 003°01'0 0.0
2014-Apr-15 11:32N 53°27' W 003°01'0 0.0
2014-Apr-15 09:31N 53°27' W 003°01'0 0.0
2014-Apr-15 08:31N 53°27' W 003°01'0 0.0
2014-Apr-15 07:30N 53°27' W 003°01'0 0.0
2014-Apr-15 03:34N 53°27' W 003°01'0 0.1
2014-Apr-15 01:34N 53°27' W 003°01'0 0.2
2014-Apr-15 00:34N 53°27' W 003°01'6 5.7
2014-Apr-14 23:34N 53°31' W 003°07'7 7.2
2014-Apr-14 22:34N 53°31' W 003°19'  

Dump ship's entire track history

sailing weather and tide predictions

Tasman — ZDKI2 — position and weather